createdAt,value
2022-09-21T00:00:14.440Z,1.85714
2022-09-21T00:01:14.520Z,2
2022-09-21T00:02:14.571Z,1.71429
2022-09-21T00:03:14.555Z,2.14286
2022-09-21T00:04:14.579Z,2.21429
2022-09-21T00:05:14.613Z,2
2022-09-21T00:06:14.658Z,2
2022-09-21T00:07:14.689Z,2.21429
2022-09-21T00:08:14.718Z,2
2022-09-21T00:09:14.753Z,2
2022-09-21T00:10:14.785Z,2.21429
2022-09-21T00:11:14.822Z,1.71429
2022-09-21T00:12:14.859Z,2.14286
2022-09-21T00:13:14.906Z,1.92857
2022-09-21T00:14:14.944Z,1.92857
2022-09-21T00:15:14.981Z,1.85714
2022-09-21T00:16:15.064Z,1.71429
2022-09-21T00:17:15.051Z,1.92857
2022-09-21T00:18:15.087Z,1.85714
2022-09-21T00:19:15.127Z,1.85714
2022-09-21T00:20:15.169Z,1.92857
2022-09-21T00:21:15.202Z,2
2022-09-21T00:22:15.244Z,1.85714
2022-09-21T00:23:15.279Z,2
2022-09-21T00:24:15.316Z,2.21429
2022-09-21T00:25:15.351Z,2.14286
2022-09-21T00:26:15.380Z,1.92857
2022-09-21T00:27:15.419Z,2
2022-09-21T00:28:15.451Z,1.85714
2022-09-21T00:29:15.493Z,1.92857
2022-09-21T00:30:15.526Z,2
2022-09-21T00:31:15.566Z,1.92857
2022-09-21T00:32:15.649Z,2.21429
2022-09-21T00:33:15.642Z,2.21429
2022-09-21T00:34:15.672Z,2.21429
2022-09-21T00:35:15.707Z,2.21429
2022-09-21T00:36:15.748Z,2.14286
2022-09-21T00:37:15.788Z,2.42857
2022-09-21T00:38:15.819Z,2.35714
2022-09-21T00:39:15.849Z,2.14286
2022-09-21T00:40:15.952Z,1.92857
2022-09-21T00:41:15.925Z,2.21429
2022-09-21T00:42:15.959Z,2
2022-09-21T00:43:15.992Z,2.21429
2022-09-21T00:44:16.037Z,2.14286
2022-09-21T00:45:16.083Z,2.35714
2022-09-21T00:46:16.111Z,1.92857
2022-09-21T00:47:16.149Z,2
2022-09-21T00:48:16.181Z,2.14286
2022-09-21T00:49:16.222Z,2
2022-09-21T00:50:16.259Z,1.85714
2022-09-21T00:51:16.289Z,1.64286
2022-09-21T00:52:16.335Z,2
2022-09-21T00:53:16.376Z,2
2022-09-21T00:54:16.415Z,2.21429
2022-09-21T00:55:16.452Z,2
2022-09-21T00:56:16.493Z,2
2022-09-21T00:57:16.530Z,2.14286
2022-09-21T00:58:16.568Z,1.92857
2022-09-21T00:59:18.954Z,1.92857
2022-09-21T01:00:16.644Z,2.21429
2022-09-21T01:01:16.732Z,1.92857
2022-09-21T01:02:16.799Z,2.21429
2022-09-21T01:03:16.762Z,2
2022-09-21T01:04:16.794Z,1.85714
2022-09-21T01:05:16.834Z,2.21429
2022-09-21T01:06:16.867Z,2.14286
2022-09-21T01:07:16.900Z,2
2022-09-21T01:08:16.941Z,1.92857
2022-09-21T01:09:16.976Z,2
2022-09-21T01:10:17.017Z,1.92857
2022-09-21T01:11:17.053Z,2
2022-09-21T01:12:17.087Z,1.92857
2022-09-21T01:13:17.120Z,2
2022-09-21T01:14:17.163Z,1.85714
2022-09-21T01:15:17.206Z,1.85714
2022-09-21T01:16:17.319Z,1.92857
2022-09-21T01:17:17.270Z,2.5
2022-09-21T01:18:17.293Z,1.92857
2022-09-21T01:19:17.337Z,2
2022-09-21T01:20:17.372Z,2
2022-09-21T01:21:17.413Z,1.71429
2022-09-21T01:22:17.449Z,2.42857
2022-09-21T01:23:17.477Z,1.92857
2022-09-21T01:24:17.513Z,2
2022-09-21T01:25:17.551Z,2
2022-09-21T01:26:17.587Z,2
2022-09-21T01:27:17.619Z,1.92857
2022-09-21T01:28:17.650Z,2
2022-09-21T01:29:17.691Z,2
2022-09-21T01:30:17.722Z,2
2022-09-21T01:31:17.810Z,1.92857
2022-09-21T01:32:17.798Z,2
2022-09-21T01:33:17.836Z,1.85714
2022-09-21T01:34:17.876Z,1.85714
2022-09-21T01:35:17.904Z,2.14286
2022-09-21T01:36:17.937Z,1.92857
2022-09-21T01:37:17.979Z,1.92857
2022-09-21T01:38:18.015Z,2
2022-09-21T01:39:18.046Z,2.14286
2022-09-21T01:40:18.123Z,2
2022-09-21T01:41:18.115Z,2.14286
2022-09-21T01:42:18.150Z,2
2022-09-21T01:43:18.192Z,1.92857
2022-09-21T01:44:18.268Z,1.85714
2022-09-21T01:45:18.263Z,1.92857
2022-09-21T01:46:18.298Z,2
2022-09-21T01:47:18.337Z,1.71429
2022-09-21T01:48:18.369Z,1.85714
2022-09-21T01:49:18.407Z,2.14286
2022-09-21T01:50:18.447Z,1.92857
2022-09-21T01:51:18.472Z,2.21429
2022-09-21T01:52:18.513Z,2
2022-09-21T01:53:18.554Z,2.42857
2022-09-21T01:54:18.593Z,2.21429
2022-09-21T01:55:18.631Z,2.64286
2022-09-21T01:56:18.671Z,2
2022-09-21T01:57:18.701Z,2.42857
2022-09-21T01:58:18.734Z,2.5
2022-09-21T01:59:18.770Z,2.21429
2022-09-21T02:00:18.805Z,2.64286
2022-09-21T02:01:18.842Z,2.5
2022-09-21T02:02:18.945Z,2.21429
2022-09-21T02:03:18.916Z,2
2022-09-21T02:04:18.949Z,2
2022-09-21T02:05:18.982Z,2
2022-09-21T02:06:19.015Z,2.14286
2022-09-21T02:07:19.058Z,2.21429
2022-09-21T02:08:19.093Z,2.21429
2022-09-21T02:09:19.115Z,2.21429
2022-09-21T02:10:19.155Z,2.21429
2022-09-21T02:11:19.200Z,2.42857
2022-09-21T02:12:19.504Z,2.14286
2022-09-21T02:13:19.279Z,2.35714
2022-09-21T02:14:19.314Z,2
2022-09-21T02:15:19.351Z,2.35714
2022-09-21T02:16:19.461Z,2.64286
2022-09-21T02:17:19.436Z,2.42857
2022-09-21T02:18:19.475Z,2.35714
2022-09-21T02:19:19.509Z,2.71429
2022-09-21T02:20:19.549Z,2.64286
2022-09-21T02:21:19.583Z,2.71429
2022-09-21T02:22:19.625Z,2.5
2022-09-21T02:23:19.659Z,2.71429
2022-09-21T02:24:19.702Z,2.42857
2022-09-21T02:25:19.731Z,2.42857
2022-09-21T02:26:19.769Z,2.42857
2022-09-21T02:27:19.809Z,2.42857
2022-09-21T02:28:19.853Z,2.35714
2022-09-21T02:29:19.894Z,2.21429
2022-09-21T02:30:19.932Z,2.64286
2022-09-21T02:31:20.011Z,2.21429
2022-09-21T02:32:20.020Z,2.5
2022-09-21T02:33:20.053Z,2.71429
2022-09-21T02:34:20.095Z,2.42857
2022-09-21T02:35:20.134Z,2.42857
2022-09-21T02:36:20.177Z,2.35714
2022-09-21T02:37:20.201Z,2.14286
2022-09-21T02:38:20.244Z,2.14286
2022-09-21T02:39:20.270Z,2
2022-09-21T02:40:20.357Z,2.42857
2022-09-21T02:41:20.348Z,2.35714
2022-09-21T02:42:20.385Z,2.21429
2022-09-21T02:43:20.416Z,2.42857
2022-09-21T02:44:20.451Z,2
2022-09-21T02:45:20.487Z,2.14286
2022-09-21T02:46:20.574Z,2.21429
2022-09-21T02:47:20.552Z,2.14286
2022-09-21T02:48:20.587Z,2.14286
2022-09-21T02:49:20.621Z,2.35714
2022-09-21T02:50:20.664Z,2.14286
2022-09-21T02:51:20.698Z,2.42857
2022-09-21T02:52:20.734Z,2.35714
2022-09-21T02:53:20.771Z,2.35714
2022-09-21T02:54:20.812Z,2.14286
2022-09-21T02:55:20.874Z,1.92857
2022-09-21T02:56:20.883Z,2.35714
2022-09-21T02:57:20.916Z,2.35714
2022-09-21T02:58:20.954Z,2.35714
2022-09-21T02:59:20.991Z,2.35714
2022-09-21T03:00:21.040Z,2.21429
2022-09-21T03:01:21.065Z,2.42857
2022-09-21T03:02:21.104Z,2.35714
2022-09-21T03:03:21.146Z,2.42857
2022-09-21T03:04:21.183Z,2.42857
2022-09-21T03:05:21.223Z,2.35714
2022-09-21T03:06:21.266Z,2.14286
2022-09-21T03:07:21.293Z,2.21429
2022-09-21T03:08:21.337Z,2.21429
2022-09-21T03:09:21.374Z,2.5
2022-09-21T03:10:21.406Z,2.35714
2022-09-21T03:11:21.445Z,2.42857
2022-09-21T03:12:21.481Z,1.92857
2022-09-21T03:13:21.521Z,2.21429
2022-09-21T03:14:21.560Z,2.14286
2022-09-21T03:15:21.594Z,2.21429
2022-09-21T03:16:21.677Z,2.21429
2022-09-21T03:17:21.671Z,2.35714
2022-09-21T03:18:21.713Z,2.14286
2022-09-21T03:19:21.756Z,2.14286
2022-09-21T03:20:21.792Z,2.14286
2022-09-21T03:21:24.840Z,1.92857
2022-09-21T03:22:21.861Z,2.14286
2022-09-21T03:23:21.892Z,2.35714
2022-09-21T03:24:21.933Z,2.42857
2022-09-21T03:25:21.964Z,2.21429
2022-09-21T03:26:22.004Z,2.14286
2022-09-21T03:27:22.036Z,2.21429
2022-09-21T03:28:22.079Z,2.35714
2022-09-21T03:29:22.112Z,2.14286
2022-09-21T03:30:22.151Z,2.42857
2022-09-21T03:31:22.273Z,2.21429
2022-09-21T03:32:22.224Z,2.35714
2022-09-21T03:33:22.266Z,2.14286
2022-09-21T03:34:22.293Z,2.14286
2022-09-21T03:35:22.331Z,2.14286
2022-09-21T03:36:22.357Z,2.14286
2022-09-21T03:37:22.387Z,1.92857
2022-09-21T03:38:22.421Z,2.14286
2022-09-21T03:39:22.453Z,2.35714
2022-09-21T03:40:22.531Z,2.35714
2022-09-21T03:41:22.531Z,2.5
2022-09-21T03:42:22.559Z,2.35714
2022-09-21T03:43:22.590Z,2.42857
2022-09-21T03:44:22.619Z,2.21429
2022-09-21T03:45:22.658Z,2.35714
2022-09-21T03:46:22.716Z,2.5
2022-09-21T03:47:22.727Z,2.42857
2022-09-21T03:48:22.762Z,2.21429
2022-09-21T03:49:22.795Z,2.42857
2022-09-21T03:50:22.828Z,2.21429
2022-09-21T03:51:22.857Z,2
2022-09-21T03:52:22.887Z,2.64286
2022-09-21T03:53:22.927Z,2.35714
2022-09-21T03:54:22.960Z,2.5
2022-09-21T03:55:23.002Z,2.42857
2022-09-21T03:56:23.044Z,2.21429
2022-09-21T03:57:23.086Z,2.42857
2022-09-21T03:58:23.132Z,2.42857
2022-09-21T03:59:23.152Z,2.42857
2022-09-21T04:00:23.191Z,2.35714
2022-09-21T04:01:23.268Z,2
2022-09-21T04:02:23.339Z,2
2022-09-21T04:03:23.295Z,2.35714
2022-09-21T04:04:23.334Z,2.21429
2022-09-21T04:05:23.376Z,2.42857
2022-09-21T04:06:23.418Z,2.35714
2022-09-21T04:07:23.463Z,2.21429
2022-09-21T04:08:23.495Z,2.21429
2022-09-21T04:09:23.538Z,2.35714
2022-09-21T04:10:23.585Z,2.21429
2022-09-21T04:11:23.619Z,2.14286
2022-09-21T04:12:23.658Z,2.5
2022-09-21T04:13:23.691Z,2.21429
2022-09-21T04:14:23.727Z,2.14286
2022-09-21T04:15:23.758Z,2
2022-09-21T04:16:23.791Z,2.21429
2022-09-21T04:17:23.817Z,2.35714
2022-09-21T04:18:23.857Z,2.35714
2022-09-21T04:19:23.899Z,2.21429
2022-09-21T04:20:23.935Z,2.21429
2022-09-21T04:21:23.977Z,2.14286
2022-09-21T04:22:24.020Z,2.14286
2022-09-21T04:23:24.056Z,2.35714
2022-09-21T04:24:24.096Z,2.21429
2022-09-21T04:25:24.135Z,2.5
2022-09-21T04:26:24.204Z,2
2022-09-21T04:27:24.212Z,2.21429
2022-09-21T04:28:24.243Z,2.35714
2022-09-21T04:29:24.302Z,2.14286
2022-09-21T04:30:24.322Z,2.14286
2022-09-21T04:31:24.406Z,2
2022-09-21T04:32:24.393Z,2.35714
2022-09-21T04:33:24.433Z,2.14286
2022-09-21T04:34:24.464Z,2.21429
2022-09-21T04:35:24.508Z,2.42857
2022-09-21T04:36:24.557Z,2.42857
2022-09-21T04:37:24.590Z,2.42857
2022-09-21T04:38:24.627Z,2.14286
2022-09-21T04:39:24.659Z,2.42857
2022-09-21T04:40:24.791Z,2.35714
2022-09-21T04:41:24.745Z,2.5
2022-09-21T04:42:24.781Z,2.5
2022-09-21T04:43:24.825Z,2.35714
2022-09-21T04:44:24.858Z,2.42857
2022-09-21T04:45:24.895Z,2.71429
2022-09-21T04:46:24.972Z,2.42857
2022-09-21T04:47:24.976Z,2.71429
2022-09-21T04:48:25.007Z,2.71429
2022-09-21T04:49:25.044Z,2.5
2022-09-21T04:50:25.073Z,2.85714
2022-09-21T04:51:25.110Z,2.42857
2022-09-21T04:52:25.147Z,2.42857
2022-09-21T04:53:25.180Z,2.64286
2022-09-21T04:54:25.226Z,2.92857
2022-09-21T04:55:25.250Z,2.85714
2022-09-21T04:56:25.281Z,2.64286
2022-09-21T04:57:25.317Z,2.5
2022-09-21T04:58:25.353Z,2.64286
2022-09-21T04:59:25.388Z,3
2022-09-21T05:00:25.430Z,2.42857
2022-09-21T05:01:25.480Z,2.64286
2022-09-21T05:02:25.495Z,2.64286
2022-09-21T05:03:25.553Z,2.71429
2022-09-21T05:04:25.568Z,2.5
2022-09-21T05:05:25.605Z,2.5
2022-09-21T05:06:25.667Z,2.42857
2022-09-21T05:07:25.671Z,2.5
2022-09-21T05:08:25.707Z,2.64286
2022-09-21T05:09:25.738Z,2.64286
2022-09-21T05:10:25.774Z,2.85714
2022-09-21T05:11:25.812Z,2.85714
2022-09-21T05:12:25.845Z,2.64286
2022-09-21T05:13:25.878Z,2.92857
2022-09-21T05:14:25.912Z,2.92857
2022-09-21T05:15:26.011Z,2.71429
2022-09-21T05:16:25.973Z,2.85714
2022-09-21T05:17:26.006Z,2.85714
2022-09-21T05:18:26.041Z,2.71429
2022-09-21T05:19:26.075Z,2.71429
2022-09-21T05:20:26.104Z,2.64286
2022-09-21T05:21:26.145Z,2.42857
2022-09-21T05:22:26.183Z,2.71429
2022-09-21T05:23:26.220Z,2.42857
2022-09-21T05:24:26.252Z,2.35714
2022-09-21T05:25:26.292Z,2.64286
2022-09-21T05:26:26.326Z,2.64286
2022-09-21T05:27:26.366Z,2.71429
2022-09-21T05:28:26.388Z,2.64286
2022-09-21T05:29:26.423Z,2.71429
2022-09-21T05:30:26.511Z,2.5
2022-09-21T05:31:26.526Z,2.5
2022-09-21T05:32:26.534Z,2.42857
2022-09-21T05:33:26.564Z,2.5
2022-09-21T05:34:26.611Z,2.5
2022-09-21T05:35:26.641Z,2.64286
2022-09-21T05:36:26.667Z,2.35714
2022-09-21T05:37:26.711Z,2.5
2022-09-21T05:38:26.748Z,2.64286
2022-09-21T05:39:26.789Z,2.5
2022-09-21T05:40:26.923Z,2.71429
2022-09-21T05:41:26.854Z,2.5
2022-09-21T05:42:26.894Z,2.42857
2022-09-21T05:43:26.927Z,2.85714
2022-09-21T05:44:26.962Z,2.85714
2022-09-21T05:45:26.996Z,2.85714
2022-09-21T05:46:27.067Z,2.71429
2022-09-21T05:47:27.068Z,2.85714
2022-09-21T05:48:27.100Z,3
2022-09-21T05:49:27.134Z,2.64286
2022-09-21T05:50:27.172Z,2.92857
2022-09-21T05:51:27.209Z,3
2022-09-21T05:52:27.242Z,3
2022-09-21T05:53:27.283Z,2.85714
2022-09-21T05:54:27.314Z,2.85714
2022-09-21T05:55:27.351Z,3
2022-09-21T05:56:27.384Z,2.71429
2022-09-21T05:57:30.621Z,2.71429
2022-09-21T05:58:27.458Z,2.92857
2022-09-21T05:59:27.495Z,2.85714
2022-09-21T06:00:27.524Z,2.92857
2022-09-21T06:01:27.584Z,2.92857
2022-09-21T06:02:27.647Z,2.71429
2022-09-21T06:03:27.634Z,3
2022-09-21T06:04:27.675Z,3.14286
2022-09-21T06:05:27.708Z,3.42857
2022-09-21T06:06:27.737Z,4
2022-09-21T06:07:27.760Z,3.85714
2022-09-21T06:08:27.797Z,3.71429
2022-09-21T06:09:27.831Z,3.64286
2022-09-21T06:10:27.864Z,3.5
2022-09-21T06:11:27.898Z,3.64286
2022-09-21T06:12:27.930Z,3.42857
2022-09-21T06:13:27.962Z,3.42857
2022-09-21T06:14:28.000Z,3.35714
2022-09-21T06:15:28.040Z,3.35714
2022-09-21T06:16:28.095Z,3.42857
2022-09-21T06:17:28.111Z,2.85714
2022-09-21T06:18:28.137Z,3.14286
2022-09-21T06:19:28.175Z,2.92857
2022-09-21T06:20:28.248Z,2.92857
2022-09-21T06:21:28.235Z,3
2022-09-21T06:22:28.268Z,3.21429
2022-09-21T06:23:28.305Z,3.21429
2022-09-21T06:24:28.344Z,2.64286
2022-09-21T06:25:28.380Z,3
2022-09-21T06:26:28.416Z,3.14286
2022-09-21T06:27:28.448Z,3.21429
2022-09-21T06:28:28.491Z,2.92857
2022-09-21T06:29:28.520Z,2.64286
2022-09-21T06:30:28.699Z,2.92857
2022-09-21T06:31:28.579Z,2.85714
2022-09-21T06:32:28.614Z,2.85714
2022-09-21T06:33:28.652Z,2.85714
2022-09-21T06:34:28.687Z,2.85714
2022-09-21T06:35:28.724Z,2.71429
2022-09-21T06:36:28.766Z,2.92857
2022-09-21T06:37:28.797Z,3.35714
2022-09-21T06:38:28.917Z,2.71429
2022-09-21T06:39:28.864Z,2.64286
2022-09-21T06:40:28.975Z,2.71429
2022-09-21T06:41:28.932Z,2.71429
2022-09-21T06:42:28.965Z,3.14286
2022-09-21T06:43:29.000Z,3.14286
2022-09-21T06:44:29.035Z,3.35714
2022-09-21T06:45:29.066Z,2.92857
2022-09-21T06:46:29.096Z,3.42857
2022-09-21T06:47:29.135Z,3.71429
2022-09-21T06:48:29.172Z,3.85714
2022-09-21T06:49:29.202Z,4.42857
2022-09-21T06:50:29.236Z,4.14286
2022-09-21T06:51:29.269Z,4
2022-09-21T06:52:29.302Z,3.71429
2022-09-21T06:53:29.324Z,4.14286
2022-09-21T06:54:29.360Z,4.35714
2022-09-21T06:55:29.385Z,4.42857
2022-09-21T06:56:29.417Z,4.35714
2022-09-21T06:57:29.451Z,4.35714
2022-09-21T06:58:29.481Z,3.85714
2022-09-21T06:59:29.522Z,4
2022-09-21T07:00:29.538Z,3.42857
2022-09-21T07:01:29.683Z,3.42857
2022-09-21T07:02:29.606Z,3.42857
2022-09-21T07:03:29.632Z,3.42857
2022-09-21T07:04:29.671Z,3.42857
2022-09-21T07:05:29.701Z,4.14286
2022-09-21T07:06:29.729Z,3.71429
2022-09-21T07:07:29.762Z,3.85714
2022-09-21T07:10:29.855Z,3.71429
2022-09-21T07:11:29.894Z,3.64286
2022-09-21T07:12:29.927Z,3.71429
2022-09-21T07:13:29.966Z,3.21429
2022-09-21T07:14:30.007Z,3.64286
2022-09-21T07:15:30.036Z,3.42857
2022-09-21T07:16:30.120Z,4
2022-09-21T07:17:30.102Z,3.5
2022-09-21T07:18:36.044Z,3.42857
2022-09-21T07:19:30.174Z,3.5
2022-09-21T07:20:30.217Z,3.71429
2022-09-21T07:21:30.254Z,4.14286
2022-09-21T07:22:30.287Z,3.71429
2022-09-21T07:23:30.322Z,3.42857
2022-09-21T07:24:30.354Z,3.42857
2022-09-21T07:25:30.386Z,3.92857
2022-09-21T07:26:30.421Z,3.71429
2022-09-21T07:27:30.451Z,3.64286
2022-09-21T07:28:30.486Z,3.64286
2022-09-21T07:29:30.517Z,3.42857
2022-09-21T07:30:30.565Z,3.71429
2022-09-21T07:31:30.657Z,4
2022-09-21T07:32:30.625Z,3.85714
2022-09-21T07:33:33.942Z,4.5
2022-09-21T07:34:30.691Z,3.71429
2022-09-21T07:35:30.724Z,3.5
2022-09-21T07:36:30.768Z,3.92857
2022-09-21T07:37:30.798Z,3.85714
2022-09-21T07:38:30.826Z,4
2022-09-21T07:39:30.860Z,3.85714
2022-09-21T07:40:31.015Z,4.35714
2022-09-21T07:41:30.932Z,3.71429
2022-09-21T07:42:30.956Z,4.14286
2022-09-21T07:43:30.995Z,4.64286
2022-09-21T07:44:31.027Z,4.35714
2022-09-21T07:45:31.101Z,4.35714
2022-09-21T07:46:31.086Z,3.92857
2022-09-21T07:47:31.114Z,4.14286
2022-09-21T07:48:31.153Z,4.14286
2022-09-21T07:49:31.190Z,4.35714
2022-09-21T07:50:31.222Z,4
2022-09-21T07:51:31.254Z,4
2022-09-21T07:52:31.294Z,4.5
2022-09-21T07:53:31.328Z,4.35714
2022-09-21T07:54:31.343Z,3.92857
2022-09-21T07:55:31.368Z,4
2022-09-21T07:56:31.391Z,3.71429
2022-09-21T07:57:31.418Z,3.71429
2022-09-21T07:58:31.448Z,4.21429
2022-09-21T07:59:31.479Z,4.14286
2022-09-21T08:00:31.511Z,4.14286
2022-09-21T08:01:31.551Z,4.14286
2022-09-21T08:02:31.663Z,4.21429
2022-09-21T08:03:31.622Z,4.21429
2022-09-21T08:04:31.656Z,4.64286
2022-09-21T08:05:31.685Z,3.92857
2022-09-21T08:06:31.721Z,4.35714
2022-09-21T08:07:32.610Z,4.21429
2022-09-21T08:08:31.788Z,4.5
2022-09-21T08:09:31.828Z,4.5
2022-09-21T08:10:31.865Z,4.5
2022-09-21T08:11:31.894Z,4.64286
2022-09-21T08:12:31.926Z,4.42857
2022-09-21T08:13:31.953Z,4.64286
2022-09-21T08:14:32.085Z,4
2022-09-21T08:15:48.912Z,4.85714
2022-09-21T08:16:32.287Z,4.42857
2022-09-21T08:17:32.096Z,4
2022-09-21T08:18:32.123Z,4.14286
2022-09-21T08:19:32.160Z,4.35714
2022-09-21T08:20:32.191Z,4.21429
2022-09-21T08:21:32.223Z,4.35714
2022-09-21T08:22:32.254Z,4.21429
2022-09-21T08:23:32.300Z,4.35714
2022-09-21T08:24:32.326Z,4.35714
2022-09-21T08:25:32.350Z,4
2022-09-21T08:26:32.377Z,3.92857
2022-09-21T08:27:32.401Z,4.35714
2022-09-21T08:28:32.435Z,4.14286
2022-09-21T08:29:32.464Z,4.85714
2022-09-21T08:30:32.503Z,4.42857
2022-09-21T08:31:32.619Z,4.64286
2022-09-21T08:32:49.872Z,4.21429
2022-09-21T08:33:32.603Z,4.35714
2022-09-21T08:34:32.633Z,4.35714
2022-09-21T08:35:32.664Z,4.64286
2022-09-21T08:36:32.692Z,4.5
2022-09-21T08:37:32.725Z,4
2022-09-21T08:38:32.739Z,4.64286
2022-09-21T08:39:32.768Z,3.71429
2022-09-21T08:40:32.846Z,4
2022-09-21T08:41:32.824Z,4.35714
2022-09-21T08:42:32.852Z,4
2022-09-21T08:43:32.879Z,4.21429
2022-09-21T08:44:32.917Z,3.92857
2022-09-21T08:45:32.956Z,4.21429
2022-09-21T08:46:33.069Z,4.14286
2022-09-21T08:47:33.022Z,4.14286
2022-09-21T08:48:36.598Z,4.14286
2022-09-21T08:49:33.085Z,3.85714
2022-09-21T08:50:33.110Z,4
2022-09-21T08:51:33.141Z,3.85714
2022-09-21T08:52:33.165Z,3.92857
2022-09-21T08:53:33.200Z,3.71429
2022-09-21T08:54:33.231Z,3.42857
2022-09-21T08:55:33.268Z,3.42857
2022-09-21T08:56:53.734Z,3.85714
2022-09-21T08:57:33.328Z,3.42857
2022-09-21T08:58:33.364Z,3.64286
2022-09-21T08:59:33.398Z,3.42857
2022-09-21T09:00:33.585Z,3.5
2022-09-21T09:01:33.512Z,3.71429
2022-09-21T09:02:33.488Z,3.5
2022-09-21T09:03:33.522Z,2.92857
2022-09-21T09:04:33.554Z,3.64286
2022-09-21T09:05:33.585Z,3.5
2022-09-21T09:06:33.614Z,3.42857
2022-09-21T09:07:33.634Z,3
2022-09-21T09:08:33.670Z,3.14286
2022-09-21T09:09:33.699Z,3.42857
2022-09-21T09:10:33.733Z,3
2022-09-21T09:11:33.769Z,3.35714
2022-09-21T09:12:33.807Z,3.14286
2022-09-21T09:13:33.846Z,3.21429
2022-09-21T09:14:33.883Z,2.85714
2022-09-21T09:15:33.925Z,2.71429
2022-09-21T09:16:34.016Z,2.92857
2022-09-21T09:17:34.000Z,3.42857
2022-09-21T09:18:34.058Z,3.85714
2022-09-21T09:19:34.070Z,3.42857
2022-09-21T09:20:34.105Z,3.14286
2022-09-21T09:21:34.139Z,3.21429
2022-09-21T09:22:34.171Z,3.21429
2022-09-21T09:23:34.204Z,2.71429
2022-09-21T09:24:34.248Z,3
2022-09-21T09:25:34.280Z,3
2022-09-21T09:26:34.321Z,3.14286
2022-09-21T09:27:34.344Z,3.21429
2022-09-21T09:28:34.369Z,2.92857
2022-09-21T09:29:34.410Z,3.35714
2022-09-21T09:30:34.441Z,3.35714
2022-09-21T09:31:34.542Z,3.42857
2022-09-21T09:32:34.509Z,3.42857
2022-09-21T09:33:34.551Z,3
2022-09-21T09:34:34.581Z,3.42857
2022-09-21T09:35:34.631Z,3.35714
2022-09-21T09:36:54.017Z,3.35714
2022-09-21T09:37:34.689Z,3.14286
2022-09-21T09:38:34.724Z,2.85714
2022-09-21T09:39:34.750Z,3.14286
2022-09-21T09:40:34.843Z,3.21429
2022-09-21T09:41:34.814Z,3
2022-09-21T09:42:34.846Z,2.92857
2022-09-21T09:43:34.880Z,3.14286
2022-09-21T09:44:34.915Z,3
2022-09-21T09:45:34.972Z,3.14286
2022-09-21T09:46:34.997Z,2.71429
2022-09-21T09:47:35.015Z,2.85714
2022-09-21T09:48:35.052Z,2.92857
2022-09-21T09:49:35.088Z,2.64286
2022-09-21T09:50:35.118Z,2.71429
2022-09-21T09:51:35.150Z,2.85714
2022-09-21T09:52:35.186Z,2.64286
2022-09-21T09:53:35.249Z,2.42857
2022-09-21T09:54:35.245Z,2.71429
2022-09-21T09:55:35.282Z,2.5
2022-09-21T09:56:35.320Z,2.5
2022-09-21T09:57:35.350Z,2.42857
2022-09-21T09:58:35.424Z,2.5
2022-09-21T09:59:35.418Z,2.71429
2022-09-21T10:00:35.453Z,2.71429
2022-09-21T10:01:35.558Z,2.5
2022-09-21T10:02:35.523Z,2.42857
2022-09-21T10:03:35.586Z,2.5
2022-09-21T10:04:35.743Z,2.14286
2022-09-21T10:05:35.623Z,2.14286
2022-09-21T10:06:35.662Z,2.35714
2022-09-21T10:07:35.698Z,2.42857
2022-09-21T10:08:35.737Z,2.42857
2022-09-21T10:09:35.764Z,2.14286
2022-09-21T10:10:35.796Z,2.35714
2022-09-21T10:11:35.842Z,2.42857
2022-09-21T10:12:35.873Z,2.5
2022-09-21T10:13:35.911Z,2.35714
2022-09-21T10:14:35.940Z,2.14286
2022-09-21T10:15:36.005Z,2.35714
2022-09-21T10:16:36.006Z,2.35714
2022-09-21T10:17:36.043Z,2.14286
2022-09-21T10:18:36.077Z,2.35714
2022-09-21T10:19:36.108Z,2.14286
2022-09-21T10:20:36.137Z,2.14286
2022-09-21T10:21:36.173Z,2.21429
2022-09-21T10:22:36.211Z,2
2022-09-21T10:23:36.251Z,1.92857
2022-09-21T10:24:36.289Z,2
2022-09-21T10:25:40.037Z,1.71429
2022-09-21T10:26:36.346Z,2.35714
2022-09-21T10:27:36.376Z,2.35714
2022-09-21T10:28:36.407Z,2.42857
2022-09-21T10:29:36.454Z,2.14286
2022-09-21T10:30:36.474Z,2.21429
2022-09-21T10:31:36.561Z,2.21429
2022-09-21T10:32:36.540Z,2.21429
2022-09-21T10:33:36.570Z,2.14286
2022-09-21T10:34:36.612Z,2.35714
2022-09-21T10:35:36.637Z,2.14286
2022-09-21T10:36:36.671Z,2.21429
2022-09-21T10:37:36.706Z,2
2022-09-21T10:38:36.742Z,2.14286
2022-09-21T10:39:36.765Z,2.14286
2022-09-21T10:40:36.855Z,2.14286
2022-09-21T10:41:36.831Z,2
2022-09-21T10:42:36.862Z,2
2022-09-21T10:43:41.221Z,1.92857
2022-09-21T10:44:36.922Z,2.21429
2022-09-21T10:45:36.960Z,2.14286
2022-09-21T10:46:37.165Z,2.14286
2022-09-21T10:47:37.015Z,2.14286
2022-09-21T10:48:37.045Z,2.14286
2022-09-21T10:49:37.073Z,2.14286
2022-09-21T10:50:37.107Z,2.14286
2022-09-21T10:51:37.139Z,2.42857
2022-09-21T10:52:37.177Z,2.35714
2022-09-21T10:53:37.204Z,2.35714
2022-09-21T10:54:37.237Z,2.71429
2022-09-21T10:55:40.859Z,2.42857
2022-09-21T10:56:37.301Z,2.21429
2022-09-21T10:57:37.327Z,2.35714
2022-09-21T10:58:37.353Z,2.5
2022-09-21T10:59:37.379Z,2.64286
2022-09-21T11:00:37.407Z,2.35714
2022-09-21T11:01:37.459Z,2.64286
2022-09-21T11:02:37.543Z,2.35714
2022-09-21T11:03:37.502Z,2.35714
2022-09-21T11:04:37.533Z,2.35714
2022-09-21T11:05:37.567Z,2.35714
2022-09-21T11:06:37.606Z,2.21429
2022-09-21T11:07:37.624Z,2.42857
2022-09-21T11:08:37.656Z,2.21429
2022-09-21T11:09:37.675Z,2.5
2022-09-21T11:10:37.710Z,1.92857
2022-09-21T11:11:37.743Z,2.14286
2022-09-21T11:12:37.766Z,2
2022-09-21T11:13:37.799Z,2.14286
2022-09-21T11:14:37.827Z,1.71429
2022-09-21T11:15:37.929Z,1.85714
2022-09-21T11:16:37.887Z,2
2022-09-21T11:17:37.916Z,2.14286
2022-09-21T11:18:37.947Z,2
2022-09-21T11:19:37.981Z,2.21429
2022-09-21T11:20:38.003Z,2.21429
2022-09-21T11:21:38.037Z,2.21429
2022-09-21T11:22:38.071Z,1.92857
2022-09-21T11:23:38.095Z,2.35714
2022-09-21T11:24:38.126Z,2.14286
2022-09-21T11:25:38.158Z,2.14286
2022-09-21T11:26:38.228Z,2.14286
2022-09-21T11:27:38.228Z,2
2022-09-21T11:28:38.252Z,1.92857
2022-09-21T11:29:38.283Z,2.21429
2022-09-21T11:30:38.352Z,2
2022-09-21T11:31:38.336Z,1.92857
2022-09-21T11:32:38.373Z,1.71429
2022-09-21T11:33:38.406Z,1.92857
2022-09-21T11:34:38.443Z,1.42857
2022-09-21T11:35:38.478Z,1.5
2022-09-21T11:36:38.512Z,1.5
2022-09-21T11:37:38.553Z,1.85714
2022-09-21T11:38:41.224Z,1.71429
2022-09-21T11:39:38.628Z,1.64286
2022-09-21T11:40:38.723Z,1.71429
2022-09-21T11:41:38.701Z,1.5
2022-09-21T11:42:38.734Z,1.64286
2022-09-21T11:43:38.765Z,1.71429
2022-09-21T11:44:38.797Z,1.5
2022-09-21T11:45:38.872Z,1.92857
2022-09-21T11:46:38.862Z,1.92857
2022-09-21T11:47:38.900Z,1.71429
2022-09-21T11:48:38.929Z,1.71429
2022-09-21T11:49:38.966Z,1.71429
2022-09-21T11:50:39.026Z,1.85714
2022-09-21T11:51:39.029Z,1.85714
2022-09-21T11:52:39.075Z,1.64286
2022-09-21T11:53:39.095Z,1.85714
2022-09-21T11:54:39.120Z,1.64286
2022-09-21T11:55:39.158Z,1.5
2022-09-21T11:56:39.191Z,1.71429
2022-09-21T11:57:39.226Z,1.42857
2022-09-21T11:58:39.254Z,1.64286
2022-09-21T11:59:39.291Z,1.5
2022-09-21T12:00:39.328Z,1.42857
2022-09-21T12:01:39.357Z,1.5
2022-09-21T12:02:39.515Z,1.35714
2022-09-21T12:03:39.410Z,1.64286
2022-09-21T12:04:39.446Z,1.21429
2022-09-21T12:05:39.478Z,1.42857
2022-09-21T12:06:39.518Z,1.21429
2022-09-21T12:07:39.559Z,1.42857
2022-09-21T12:08:39.584Z,1.35714
2022-09-21T12:09:39.613Z,1.35714
2022-09-21T12:10:39.661Z,1.21429
2022-09-21T12:11:39.681Z,1.5
2022-09-21T12:12:39.711Z,1.21429
2022-09-21T12:13:39.738Z,1.42857
2022-09-21T12:14:39.765Z,1.42857
2022-09-21T12:15:39.787Z,1.42857
2022-09-21T12:16:39.865Z,1.5
2022-09-21T12:17:39.852Z,1.64286
2022-09-21T12:18:43.877Z,1.64286
2022-09-21T12:19:39.913Z,1.71429
2022-09-21T12:20:39.940Z,1.5
2022-09-21T12:21:39.983Z,1.92857
2022-09-21T12:22:40.039Z,1.35714
2022-09-21T12:23:40.044Z,1.5
2022-09-21T12:24:40.073Z,1.71429
2022-09-21T12:25:40.106Z,1.42857
2022-09-21T12:26:40.128Z,1.71429
2022-09-21T12:27:40.158Z,1.64286
2022-09-21T12:28:40.191Z,1.92857
2022-09-21T12:29:40.231Z,1.71429
2022-09-21T12:30:40.306Z,1.92857